createdAt,value
2022-12-01T00:01:07.921Z,63.67
2022-12-01T00:03:34.816Z,63.99
2022-12-01T00:06:03.399Z,63.77
2022-12-01T00:08:31.023Z,64.17
2022-12-01T00:11:04.823Z,63.59
2022-12-01T00:13:31.741Z,63.42
2022-12-01T00:15:58.118Z,63.73
2022-12-01T00:18:24.580Z,63.68
2022-12-01T00:20:55.895Z,64.21
2022-12-01T00:23:23.167Z,64.30
2022-12-01T00:25:49.611Z,64.23
2022-12-01T00:28:15.960Z,64.43
2022-12-01T00:30:42.394Z,63.98
2022-12-01T00:33:08.719Z,64.16
2022-12-01T00:35:35.165Z,64.70
2022-12-01T00:38:01.533Z,64.21
2022-12-01T00:40:27.874Z,65.06
2022-12-01T00:42:54.195Z,64.49
2022-12-01T00:45:20.532Z,64.53
2022-12-01T00:47:46.871Z,64.90
2022-12-01T00:50:13.255Z,64.45
2022-12-01T00:52:39.679Z,64.26
2022-12-01T00:55:06.413Z,64.81
2022-12-01T00:57:32.822Z,64.17
2022-12-01T00:59:59.362Z,64.22
2022-12-01T01:02:28.300Z,64.26
2022-12-01T01:04:54.748Z,64.27
2022-12-01T01:07:21.800Z,64.45
2022-12-01T01:09:48.477Z,64.50
2022-12-01T01:12:14.947Z,64.50
2022-12-01T01:14:41.501Z,64.82
2022-12-01T01:17:07.897Z,64.53
2022-12-01T01:19:34.295Z,64.98
2022-12-01T01:22:00.618Z,64.66
2022-12-01T01:24:27.022Z,64.98
2022-12-01T01:26:55.353Z,64.74
2022-12-01T01:29:21.694Z,64.83
2022-12-01T01:31:48.203Z,65.13
2022-12-01T01:34:14.628Z,65.62
2022-12-01T01:36:40.972Z,65.41
2022-12-01T01:39:07.358Z,64.62
2022-12-01T01:41:33.690Z,65.07
2022-12-01T01:44:04.203Z,65.15
2022-12-01T01:46:32.835Z,64.66
2022-12-01T01:49:02.798Z,64.69
2022-12-01T01:51:41.320Z,64.57
2022-12-01T01:54:47.659Z,64.48
2022-12-01T01:57:17.297Z,64.20
2022-12-01T01:59:50.188Z,64.66
2022-12-01T02:02:17.419Z,64.33
2022-12-01T02:04:49.797Z,63.74
2022-12-01T02:07:18.604Z,63.93
2022-12-01T02:09:45.470Z,64.27
2022-12-01T02:12:38.422Z,63.88
2022-12-01T02:15:23.198Z,63.87
2022-12-01T02:18:13.594Z,64.11
2022-12-01T02:21:06.792Z,63.80
2022-12-01T02:23:45.384Z,64.26
2022-12-01T02:26:40.613Z,64.87
2022-12-01T02:29:35.454Z,64.79
2022-12-01T02:32:24.878Z,64.54
2022-12-01T02:35:03.233Z,64.78
2022-12-01T02:37:39.862Z,64.67
2022-12-01T02:40:24.703Z,65.45
2022-12-01T02:43:07.623Z,66.09
2022-12-01T02:45:40.053Z,66.02
2022-12-01T02:48:14.138Z,65.97
2022-12-01T02:50:41.583Z,65.29
2022-12-01T02:53:11.140Z,65.37
2022-12-01T02:55:46.493Z,64.80
2022-12-01T02:58:14.745Z,65.40
2022-12-01T03:00:48.919Z,65.38
2022-12-01T03:03:40.316Z,65.19
2022-12-01T03:06:10.578Z,65.31
2022-12-01T03:09:09.556Z,65.39
2022-12-01T03:11:46.616Z,65.13
2022-12-01T03:14:26.404Z,65.25
2022-12-01T03:16:54.460Z,65.21
2022-12-01T03:19:29.451Z,65.31
2022-12-01T03:22:00.223Z,65.30
2022-12-01T03:24:29.337Z,66.00
2022-12-01T03:26:58.699Z,66.38
2022-12-01T03:29:30.791Z,65.84
2022-12-01T03:32:03.088Z,65.36
2022-12-01T03:34:40.742Z,65.55
2022-12-01T03:37:21.691Z,65.64
2022-12-01T03:39:50.627Z,65.68
2022-12-01T03:42:23.649Z,66.02
2022-12-01T03:44:55.396Z,65.50
2022-12-01T03:47:25.658Z,65.69
2022-12-01T03:49:53.793Z,65.85
2022-12-01T03:52:42.145Z,65.87
2022-12-01T03:55:13.902Z,65.69
2022-12-01T03:57:53.990Z,65.96
2022-12-01T04:00:21.209Z,66.33
2022-12-01T04:02:48.806Z,66.77
2022-12-01T04:05:15.251Z,66.22
2022-12-01T04:07:41.695Z,66.79
2022-12-01T04:10:08.522Z,67.41
2022-12-01T04:12:34.961Z,66.91
2022-12-01T04:15:11.045Z,67.10
2022-12-01T04:17:37.711Z,66.56
2022-12-01T04:20:06.460Z,66.48
2022-12-01T04:22:33.836Z,67.06
2022-12-01T04:25:00.418Z,66.81
2022-12-01T04:27:26.742Z,66.36
2022-12-01T04:29:53.299Z,67.01
2022-12-01T04:32:19.748Z,66.59
2022-12-01T04:34:46.114Z,67.19
2022-12-01T04:37:13.031Z,66.10
2022-12-01T04:39:39.499Z,66.62
2022-12-01T04:42:05.972Z,66.54
2022-12-01T04:44:34.972Z,66.62
2022-12-01T04:47:02.667Z,66.66
2022-12-01T04:49:29.328Z,66.62
2022-12-01T04:51:55.742Z,66.65
2022-12-01T04:54:22.244Z,66.17
2022-12-01T04:56:48.792Z,66.49
2022-12-01T04:59:15.155Z,65.96
2022-12-01T05:01:41.645Z,66.08
2022-12-01T05:04:11.179Z,65.73
2022-12-01T05:06:38.078Z,65.98
2022-12-01T05:09:05.035Z,65.68
2022-12-01T05:11:32.545Z,65.38
2022-12-01T05:13:59.369Z,65.49
2022-12-01T05:16:34.303Z,65.44
2022-12-01T05:19:22.997Z,64.68
2022-12-01T05:21:50.632Z,64.90
2022-12-01T05:24:18.555Z,64.29
2022-12-01T05:26:45.442Z,64.34
2022-12-01T05:29:12.662Z,63.98
2022-12-01T05:31:39.692Z,63.61
2022-12-01T05:34:07.071Z,63.67
2022-12-01T05:36:33.531Z,63.73
2022-12-01T05:38:59.937Z,63.71
2022-12-01T05:41:26.302Z,64.06
2022-12-01T05:43:52.711Z,63.96
2022-12-01T05:46:19.203Z,63.59
2022-12-01T05:48:45.806Z,63.60
2022-12-01T05:51:14.450Z,63.77
2022-12-01T05:53:40.869Z,63.78
2022-12-01T05:56:08.252Z,63.91
2022-12-01T05:58:35.678Z,64.15
2022-12-01T06:01:02.305Z,64.12
2022-12-01T06:03:28.623Z,64.07
2022-12-01T06:05:54.985Z,64.38
2022-12-01T06:08:21.322Z,64.36
2022-12-01T06:10:47.757Z,64.47
2022-12-01T06:13:14.346Z,64.74
2022-12-01T06:15:40.685Z,64.65
2022-12-01T06:18:07.749Z,65.06
2022-12-01T06:20:34.082Z,64.82
2022-12-01T06:23:00.503Z,64.36
2022-12-01T06:25:26.841Z,64.60
2022-12-01T06:27:57.547Z,65.47
2022-12-01T06:30:24.281Z,67.45
2022-12-01T06:32:50.674Z,66.23
2022-12-01T06:35:17.216Z,64.97
2022-12-01T06:37:43.534Z,64.31
2022-12-01T06:40:10.630Z,64.54
2022-12-01T06:42:36.980Z,64.36
2022-12-01T06:45:03.469Z,64.49
2022-12-01T06:47:29.829Z,64.65
2022-12-01T06:49:56.164Z,64.71
2022-12-01T06:52:22.494Z,64.67
2022-12-01T06:54:49.141Z,64.69
2022-12-01T06:57:15.777Z,64.89
2022-12-01T06:59:42.499Z,65.04
2022-12-01T07:02:11.409Z,65.18
2022-12-01T07:04:37.810Z,64.38
2022-12-01T07:07:05.839Z,64.60
2022-12-01T07:09:32.185Z,65.16
2022-12-01T07:11:58.508Z,64.73
2022-12-01T07:14:26.672Z,64.58
2022-12-01T07:16:53.498Z,64.32
2022-12-01T07:19:20.226Z,64.11
2022-12-01T07:21:47.122Z,64.89
2022-12-01T07:24:13.979Z,64.85
2022-12-01T07:26:43.797Z,65.63
2022-12-01T07:29:11.195Z,64.74
2022-12-01T07:31:38.608Z,65.20
2022-12-01T07:34:05.821Z,65.70
2022-12-01T07:36:32.434Z,65.07
2022-12-01T07:38:58.809Z,65.06
2022-12-01T07:41:25.375Z,64.96
2022-12-01T07:43:51.784Z,65.26
2022-12-01T07:46:24.700Z,65.21
2022-12-01T07:48:52.704Z,65.26
2022-12-01T07:51:19.964Z,65.67
2022-12-01T07:53:49.124Z,65.75
2022-12-01T07:56:15.818Z,66.18
2022-12-01T07:58:42.866Z,66.62
2022-12-01T08:01:15.189Z,66.80
2022-12-01T08:03:42.231Z,66.04
2022-12-01T08:06:09.794Z,65.99
2022-12-01T08:08:38.524Z,66.21
2022-12-01T08:11:07.330Z,65.71
2022-12-01T08:13:33.938Z,65.93
2022-12-01T08:16:04.980Z,66.63
2022-12-01T08:18:34.093Z,66.40
2022-12-01T08:21:00.508Z,66.73
2022-12-01T08:23:26.863Z,66.75
2022-12-01T08:25:53.457Z,66.68
2022-12-01T08:28:20.621Z,66.66
2022-12-01T08:30:47.730Z,66.24
2022-12-01T08:33:14.210Z,66.36
2022-12-01T08:35:40.577Z,67.58
2022-12-01T08:38:06.922Z,67.94
2022-12-01T08:40:33.404Z,67.13
2022-12-01T08:43:00.035Z,66.86
2022-12-01T08:45:26.358Z,66.90
2022-12-01T08:47:58.546Z,66.85
2022-12-01T08:50:26.801Z,66.39
2022-12-01T08:52:53.377Z,66.59
2022-12-01T08:55:20.783Z,66.31
2022-12-01T08:57:47.384Z,66.32
2022-12-01T09:00:14.481Z,66.04
2022-12-01T09:02:40.855Z,66.04
2022-12-01T09:05:07.622Z,66.19
2022-12-01T09:07:34.015Z,66.24
2022-12-01T09:10:00.448Z,66.40
2022-12-01T09:12:28.896Z,66.12
2022-12-01T09:14:55.210Z,66.25
2022-12-01T09:17:21.645Z,66.36
2022-12-01T09:19:48.537Z,66.23
2022-12-01T09:22:15.072Z,66.51
2022-12-01T09:24:41.419Z,66.92
2022-12-01T09:27:09.476Z,66.78
2022-12-01T09:29:35.934Z,66.79
2022-12-01T09:32:02.267Z,66.12
2022-12-01T09:34:29.128Z,66.80
2022-12-01T09:36:57.543Z,66.54
2022-12-01T09:39:24.655Z,66.36
2022-12-01T09:42:07.685Z,66.04
2022-12-01T09:44:44.680Z,66.59
2022-12-01T09:47:18.870Z,66.72
2022-12-01T09:50:01.842Z,66.65
2022-12-01T09:52:33.469Z,66.38
2022-12-01T09:55:01.154Z,66.23
2022-12-01T09:57:38.306Z,66.48
2022-12-01T10:00:15.077Z,66.50
2022-12-01T10:03:10.689Z,67.18
2022-12-01T10:06:25.033Z,67.42
2022-12-01T10:08:44.148Z,66.89
2022-12-01T10:11:28.205Z,67.05
2022-12-01T10:13:54.588Z,66.93
2022-12-01T10:16:27.740Z,66.65
2022-12-01T10:18:59.962Z,66.61
2022-12-01T10:21:55.031Z,65.82
2022-12-01T10:24:59.115Z,66.00
2022-12-01T10:27:40.642Z,66.30
2022-12-01T10:30:15.512Z,66.14
2022-12-01T10:32:53.772Z,66.64
2022-12-01T10:35:36.905Z,66.50
2022-12-01T10:38:13.143Z,66.12
2022-12-01T10:40:42.617Z,66.02
2022-12-01T10:43:10.574Z,65.95
2022-12-01T10:45:44.086Z,66.14
2022-12-01T10:48:20.753Z,65.56
2022-12-01T10:50:50.428Z,65.65
2022-12-01T10:53:22.926Z,65.46
2022-12-01T10:56:16.913Z,65.48
2022-12-01T10:58:48.574Z,65.13
2022-12-01T11:01:20.038Z,65.07
2022-12-01T11:03:52.533Z,65.20
2022-12-01T11:06:22.791Z,65.25
2022-12-01T11:09:05.698Z,65.39
2022-12-01T11:11:40.482Z,64.97
2022-12-01T11:14:20.334Z,64.98
2022-12-01T11:16:48.901Z,65.40
2022-12-01T11:19:32.513Z,65.51
2022-12-01T11:22:01.316Z,65.57
2022-12-01T11:24:53.748Z,65.85
2022-12-01T11:27:23.154Z,65.38
2022-12-01T11:29:52.929Z,65.67
2022-12-01T11:32:26.171Z,65.61
2022-12-01T11:35:23.163Z,65.77
2022-12-01T11:38:27.903Z,65.45
2022-12-01T11:40:51.099Z,66.23
2022-12-01T11:43:26.477Z,65.69
2022-12-01T11:45:54.421Z,65.93
2022-12-01T11:48:20.815Z,66.19
2022-12-01T11:51:28.936Z,66.10
2022-12-01T11:54:12.599Z,65.27
2022-12-01T11:56:39.384Z,65.40
2022-12-01T11:59:13.883Z,65.13
2022-12-01T12:02:19.622Z,65.40
2022-12-01T12:04:53.100Z,64.82
2022-12-01T12:07:58.549Z,65.11
2022-12-01T12:10:39.243Z,65.11
2022-12-01T12:13:20.494Z,64.57
2022-12-01T12:16:10.369Z,64.77
2022-12-01T12:19:01.992Z,64.64
2022-12-01T12:21:42.056Z,64.63
2022-12-01T12:24:49.957Z,64.54
2022-12-01T12:27:41.706Z,64.93
2022-12-01T12:30:21.939Z,64.57
2022-12-01T12:33:00.414Z,65.15
2022-12-01T12:35:32.905Z,65.38
2022-12-01T12:38:23.814Z,64.87
2022-12-01T12:41:02.131Z,64.99
2022-12-01T12:43:49.974Z,64.94
2022-12-01T12:46:26.344Z,64.48
2022-12-01T12:49:25.183Z,64.38
2022-12-01T12:52:13.492Z,64.62
2022-12-01T12:54:57.501Z,64.85
2022-12-01T12:57:35.121Z,64.25
2022-12-01T13:00:13.089Z,64.86
2022-12-01T13:02:46.331Z,65.19
2022-12-01T13:05:25.167Z,64.62
2022-12-01T13:07:55.166Z,64.18
2022-12-01T13:10:47.259Z,63.87
2022-12-01T13:13:19.655Z,63.96
2022-12-01T13:15:49.121Z,64.60
2022-12-01T13:18:54.501Z,63.84
2022-12-01T13:21:22.605Z,63.90
2022-12-01T13:23:51.382Z,63.56
2022-12-01T13:26:20.585Z,63.46
2022-12-01T13:28:51.581Z,63.30
2022-12-01T13:31:20.038Z,63.45
2022-12-01T13:33:59.766Z,63.23
2022-12-01T13:39:20.168Z,62.60
2022-12-01T13:41:56.492Z,62.34
2022-12-01T13:44:26.216Z,62.98
2022-12-01T13:47:24.869Z,62.88
2022-12-01T13:49:52.853Z,62.77
2022-12-01T13:52:22.283Z,62.56
2022-12-01T13:55:10.697Z,62.20
2022-12-01T13:57:40.409Z,62.71
2022-12-01T14:00:27.191Z,62.72
2022-12-01T14:03:11.948Z,62.62
2022-12-01T14:05:53.711Z,62.69
2022-12-01T14:08:23.525Z,62.35
2022-12-01T14:11:06.957Z,62.56
2022-12-01T14:13:47.014Z,62.67
2022-12-01T14:16:13.545Z,62.44
2022-12-01T14:18:44.054Z,62.35
2022-12-01T14:21:12.540Z,62.20
2022-12-01T14:24:00.669Z,62.37
2022-12-01T14:26:29.303Z,62.96
2022-12-01T14:28:55.734Z,62.76
2022-12-01T14:31:23.574Z,61.97
2022-12-01T14:34:01.498Z,62.73
2022-12-01T14:36:36.121Z,62.39
2022-12-01T14:39:13.077Z,62.32
2022-12-01T14:41:51.018Z,62.19
2022-12-01T14:44:32.778Z,62.47
2022-12-01T14:47:13.225Z,62.10
2022-12-01T14:49:42.150Z,61.70
2022-12-01T14:52:36.431Z,62.06
2022-12-01T14:55:07.246Z,62.11
2022-12-01T14:57:39.634Z,62.38
2022-12-01T15:00:16.155Z,62.12
2022-12-01T15:02:48.382Z,62.05
2022-12-01T15:05:18.099Z,61.98
2022-12-01T15:07:48.645Z,62.41
2022-12-01T15:10:35.442Z,62.60
2022-12-01T15:13:30.606Z,62.86
2022-12-01T15:16:00.100Z,62.67
2022-12-01T15:18:32.439Z,62.93
2022-12-01T15:21:10.462Z,62.81
2022-12-01T15:23:37.269Z,63.08
2022-12-01T15:26:03.704Z,62.23
2022-12-01T15:28:35.419Z,62.54
2022-12-01T15:31:09.747Z,63.08
2022-12-01T15:33:38.903Z,63.20
2022-12-01T15:36:07.359Z,63.21
2022-12-01T15:38:37.105Z,63.28
2022-12-01T15:41:28.587Z,63.38
2022-12-01T15:43:58.505Z,63.59
2022-12-01T15:46:30.806Z,64.01
2022-12-01T15:49:08.571Z,63.55
2022-12-01T15:51:35.257Z,63.42
2022-12-01T15:54:02.622Z,63.50
2022-12-01T15:56:36.438Z,63.24
2022-12-01T15:59:09.363Z,63.12
2022-12-01T16:01:37.109Z,63.51
2022-12-01T16:04:17.169Z,63.44
2022-12-01T16:06:53.922Z,64.09
2022-12-01T16:09:27.853Z,63.74
2022-12-01T16:12:12.597Z,63.95
2022-12-01T16:14:53.380Z,63.57
2022-12-01T16:17:20.547Z,63.56
2022-12-01T16:19:46.898Z,63.95
2022-12-01T16:22:18.580Z,64.09
2022-12-01T16:24:54.524Z,63.71
2022-12-01T16:27:29.746Z,63.51
2022-12-01T16:30:02.540Z,63.47
2022-12-01T16:32:37.891Z,64.24
2022-12-01T16:35:05.740Z,63.23
2022-12-01T16:37:32.165Z,63.40
2022-12-01T16:39:58.705Z,62.94
2022-12-01T16:42:25.044Z,63.31
2022-12-01T16:44:52.372Z,63.24
2022-12-01T16:47:24.255Z,63.38
2022-12-01T16:49:51.847Z,62.89
2022-12-01T16:55:17.082Z,63.68
2022-12-01T16:57:43.604Z,63.33
2022-12-01T17:00:10.978Z,63.74
2022-12-01T17:02:37.330Z,63.66
2022-12-01T17:05:04.036Z,64.31
2022-12-01T17:07:30.403Z,64.30
2022-12-01T17:09:56.775Z,64.76
2022-12-01T17:12:26.227Z,64.84
2022-12-01T17:14:52.821Z,64.27
2022-12-01T17:17:19.227Z,64.54
2022-12-01T17:19:45.694Z,64.37
2022-12-01T17:22:12.010Z,64.29
2022-12-01T17:24:38.454Z,65.03
2022-12-01T17:27:04.891Z,64.36
2022-12-01T17:29:31.323Z,64.36
2022-12-01T17:31:57.658Z,64.57
2022-12-01T17:34:24.002Z,65.00
2022-12-01T17:36:51.594Z,64.56
2022-12-01T17:39:19.274Z,64.60
2022-12-01T17:41:45.739Z,64.65
2022-12-01T17:44:12.141Z,63.90
2022-12-01T17:46:38.804Z,64.42
2022-12-01T17:49:09.225Z,64.65
2022-12-01T17:51:36.670Z,64.44
2022-12-01T17:54:03.223Z,64.25
2022-12-01T17:56:29.536Z,64.50
2022-12-01T17:58:55.987Z,64.95
2022-12-01T18:01:26.920Z,64.56
2022-12-01T18:03:57.559Z,64.55
2022-12-01T18:06:25.427Z,64.17
2022-12-01T18:08:51.750Z,64.69
2022-12-01T18:11:18.126Z,64.11
2022-12-01T18:13:47.105Z,64.18
2022-12-01T18:16:28.899Z,64.62
2022-12-01T18:18:56.967Z,64.15
2022-12-01T18:21:24.901Z,64.53
2022-12-01T18:24:00.547Z,64.17
2022-12-01T18:26:28.330Z,64.20
2022-12-01T18:28:56.785Z,64.38
2022-12-01T18:31:23.324Z,64.31
2022-12-01T18:33:49.804Z,64.33
2022-12-01T18:36:19.356Z,64.55
2022-12-01T18:38:47.192Z,64.43
2022-12-01T18:41:14.729Z,64.58
2022-12-01T18:43:41.839Z,64.83
2022-12-01T18:46:08.643Z,64.80
2022-12-01T18:48:35.492Z,64.72
2022-12-01T18:51:06.570Z,65.42
2022-12-01T18:53:33.314Z,65.30
2022-12-01T18:56:11.680Z,65.83
2022-12-01T18:58:39.173Z,65.78
2022-12-01T19:01:21.515Z,65.46
2022-12-01T19:03:48.354Z,64.77
2022-12-01T19:06:15.158Z,65.06
2022-12-01T19:08:41.715Z,65.01
2022-12-01T19:11:08.621Z,65.26
2022-12-01T19:13:35.234Z,65.45
2022-12-01T19:16:20.241Z,65.82
2022-12-01T19:18:48.905Z,65.88
2022-12-01T19:21:17.423Z,65.51
2022-12-01T19:23:45.371Z,65.20
2022-12-01T19:26:15.169Z,65.65
2022-12-01T19:28:42.237Z,65.75
2022-12-01T19:31:11.498Z,65.58
2022-12-01T19:33:38.606Z,65.86
2022-12-01T19:36:17.287Z,65.85
2022-12-01T19:38:44.790Z,65.44
2022-12-01T19:41:12.882Z,65.46
2022-12-01T19:43:39.630Z,66.02
2022-12-01T19:46:17.836Z,66.35
2022-12-01T19:48:44.428Z,65.64
2022-12-01T19:51:19.899Z,66.62
2022-12-01T19:53:46.814Z,66.49
2022-12-01T19:56:13.323Z,66.31
2022-12-01T19:58:40.204Z,66.07
2022-12-01T20:01:09.477Z,66.25
2022-12-01T20:03:36.221Z,67.37
2022-12-01T20:06:23.994Z,66.70
2022-12-01T20:08:51.284Z,66.40
2022-12-01T20:11:18.330Z,66.48
2022-12-01T20:13:47.298Z,66.97
2022-12-01T20:16:13.663Z,66.43
2022-12-01T20:18:41.469Z,66.20
2022-12-01T20:21:09.410Z,65.95
2022-12-01T20:23:36.714Z,65.93
2022-12-01T20:26:06.204Z,66.67
2022-12-01T20:28:33.301Z,66.65
2022-12-01T20:31:13.128Z,66.76
2022-12-01T20:33:40.456Z,66.88
2022-12-01T20:36:07.827Z,66.77
2022-12-01T20:38:35.468Z,67.07
2022-12-01T20:41:02.206Z,66.86
2022-12-01T20:43:28.768Z,67.16
2022-12-01T20:45:55.451Z,67.15
2022-12-01T20:48:22.651Z,67.27
2022-12-01T20:50:49.029Z,67.62
2022-12-01T20:53:15.743Z,67.00
2022-12-01T20:55:42.552Z,67.08
2022-12-01T20:58:09.585Z,66.97
2022-12-01T21:00:38.350Z,66.50
2022-12-01T21:03:08.144Z,67.38
2022-12-01T21:05:48.374Z,66.91
2022-12-01T21:08:19.739Z,67.81
2022-12-01T21:10:52.372Z,67.04
2022-12-01T21:13:39.778Z,66.18
2022-12-01T21:16:16.464Z,66.39
2022-12-01T21:19:06.293Z,65.70
2022-12-01T21:21:37.874Z,66.72
2022-12-01T21:24:07.195Z,65.96
2022-12-01T21:26:47.775Z,65.96
2022-12-01T21:29:20.129Z,66.31
2022-12-01T21:31:49.536Z,66.06
2022-12-01T21:34:22.779Z,66.03
2022-12-01T21:36:52.299Z,65.97
2022-12-01T21:39:21.816Z,66.43
2022-12-01T21:41:50.060Z,66.26
2022-12-01T21:44:22.001Z,66.25
2022-12-01T21:46:56.312Z,66.56
2022-12-01T21:49:38.507Z,66.26
2022-12-01T21:52:22.942Z,65.85
2022-12-01T21:54:50.118Z,65.44
2022-12-01T21:57:43.322Z,66.04
2022-12-01T22:00:26.056Z,66.16
2022-12-01T22:03:12.347Z,66.01
2022-12-01T22:05:41.797Z,66.27
2022-12-01T22:08:16.895Z,66.17
2022-12-01T22:14:20.267Z,66.10
2022-12-01T22:16:56.693Z,65.71
2022-12-01T22:19:27.635Z,66.02
2022-12-01T22:22:25.239Z,65.68
2022-12-01T22:24:56.167Z,65.55
2022-12-01T22:27:27.939Z,65.26
2022-12-01T22:30:10.777Z,64.92
2022-12-01T22:32:56.576Z,65.16
2022-12-01T22:35:29.170Z,64.81
2022-12-01T22:38:09.189Z,64.73
2022-12-01T22:40:44.382Z,64.80
2022-12-01T22:43:19.953Z,64.75
2022-12-01T22:46:02.864Z,65.16
2022-12-01T22:49:01.030Z,64.69
2022-12-01T22:51:48.512Z,64.46
2022-12-01T22:54:14.817Z,64.58
2022-12-01T22:56:46.638Z,64.56
2022-12-01T22:59:24.994Z,64.37
2022-12-01T23:02:01.810Z,64.15
2022-12-01T23:05:01.673Z,64.95
2022-12-01T23:07:41.370Z,65.32
2022-12-01T23:10:15.370Z,65.26
2022-12-01T23:12:42.832Z,65.35
2022-12-01T23:15:20.065Z,65.49
2022-12-01T23:17:47.205Z,65.75
2022-12-01T23:20:19.735Z,65.72
2022-12-01T23:22:47.183Z,65.73
2022-12-01T23:25:18.878Z,65.98
2022-12-01T23:27:48.763Z,66.47
2022-12-01T23:30:19.726Z,66.29
2022-12-01T23:32:56.050Z,66.52
2022-12-01T23:35:22.482Z,66.38
2022-12-01T23:37:48.909Z,66.35
2022-12-01T23:40:26.126Z,66.77
2022-12-01T23:42:52.481Z,66.85
2022-12-01T23:45:25.877Z,66.15
2022-12-01T23:47:54.315Z,66.17
2022-12-01T23:50:26.059Z,66.56
2022-12-01T23:52:53.249Z,65.79
2022-12-01T23:55:22.910Z,66.88
2022-12-01T23:57:49.964Z,65.94
